createdAt,value
2023-05-12T00:00:06.417Z,96430.41
2023-05-12T00:02:38.568Z,96428.91
2023-05-12T00:05:05.823Z,96424.06
2023-05-12T00:07:32.633Z,96430.06
2023-05-12T00:09:59.265Z,96422.25
2023-05-12T00:12:26.076Z,96415.69
2023-05-12T00:14:52.786Z,96415.19
2023-05-12T00:17:19.553Z,96418.97
2023-05-12T00:19:47.078Z,96417.03
2023-05-12T00:22:14.442Z,96406.34
2023-05-12T00:24:41.149Z,96410.94
2023-05-12T00:27:07.885Z,96411.63
2023-05-12T00:29:34.684Z,96417.50
2023-05-12T00:32:01.631Z,96404.47
2023-05-12T00:34:28.750Z,96408.53
2023-05-12T00:36:55.462Z,96408.19
2023-05-12T00:39:22.120Z,96401.88
2023-05-12T00:41:50.321Z,96406.25
2023-05-12T00:44:18.725Z,96393.66
2023-05-12T00:46:45.737Z,96386.31
2023-05-12T00:49:12.998Z,96390.84
2023-05-12T00:51:40.035Z,96386.38
2023-05-12T00:54:06.920Z,96389.50
2023-05-12T00:56:39.414Z,96391.44
2023-05-12T00:59:08.948Z,96381.69
2023-05-12T01:01:39.056Z,96376.44
2023-05-12T01:04:06.051Z,96371.56
2023-05-12T01:06:42.871Z,96361.81
2023-05-12T01:09:10.520Z,96356.78
2023-05-12T01:11:37.970Z,96339.03
2023-05-12T01:14:05.500Z,96309.47
2023-05-12T01:16:41.304Z,96306.44
2023-05-12T01:19:13.834Z,96314.41
2023-05-12T01:21:40.967Z,96320.44
2023-05-12T01:24:09.435Z,96314.22
2023-05-12T01:26:36.980Z,96316.91
2023-05-12T01:29:04.939Z,96315.16
2023-05-12T01:31:32.727Z,96317.44
2023-05-12T01:33:59.475Z,96313.44
2023-05-12T01:36:26.545Z,96317.50
2023-05-12T01:38:53.257Z,96323.50
2023-05-12T01:41:20.033Z,96308.81
2023-05-12T01:43:47.088Z,96301.31
2023-05-12T01:46:15.115Z,96296.09
2023-05-12T01:48:43.905Z,96289.03
2023-05-12T01:51:10.676Z,96286.56
2023-05-12T01:53:37.611Z,96289.34
2023-05-12T01:56:04.664Z,96290.66
2023-05-12T01:58:32.874Z,96286.56
2023-05-12T02:01:00.427Z,96281.69
2023-05-12T02:03:27.406Z,96275.03
2023-05-12T02:05:55.437Z,96269.66
2023-05-12T02:08:22.417Z,96271.81
2023-05-12T02:10:49.500Z,96278.78
2023-05-12T02:13:16.189Z,96275.16
2023-05-12T02:15:42.856Z,96267.63
2023-05-12T02:18:09.739Z,96276.53
2023-05-12T02:20:36.846Z,96267.88
2023-05-12T02:23:03.511Z,96267.38
2023-05-12T02:25:31.233Z,96266.31
2023-05-12T02:27:57.917Z,96261.78
2023-05-12T02:30:24.805Z,96255.47
2023-05-12T02:32:51.863Z,96254.72
2023-05-12T02:35:18.783Z,96254.38
2023-05-12T02:37:45.528Z,96262.13
2023-05-12T02:40:12.540Z,96251.38
2023-05-12T02:42:40.524Z,96254.31
2023-05-12T02:45:07.998Z,96246.56
2023-05-12T02:47:34.717Z,96251.78
2023-05-12T02:50:01.705Z,96246.84
2023-05-12T02:52:28.489Z,96242.47
2023-05-12T02:54:56.290Z,96239.38
2023-05-12T02:57:23.046Z,96229.72
2023-05-12T02:59:49.805Z,96240.13
2023-05-12T03:02:16.617Z,96232.00
2023-05-12T03:04:43.896Z,96228.59
2023-05-12T03:07:10.707Z,96221.16
2023-05-12T03:09:37.503Z,96217.03
2023-05-12T03:12:04.582Z,96211.84
2023-05-12T03:14:31.236Z,96213.34
2023-05-12T03:16:59.019Z,96212.25
2023-05-12T03:19:25.946Z,96195.38
2023-05-12T03:21:52.783Z,96171.59
2023-05-12T03:24:19.761Z,96171.22
2023-05-12T03:26:46.803Z,96173.47
2023-05-12T03:29:13.562Z,96169.72
2023-05-12T03:31:40.659Z,96181.53
2023-05-12T03:34:07.574Z,96175.59
2023-05-12T03:36:34.507Z,96179.63
2023-05-12T03:39:03.225Z,96174.91
2023-05-12T03:41:29.951Z,96171.13
2023-05-12T03:43:57.067Z,96188.16
2023-05-12T03:46:24.377Z,96187.03
2023-05-12T03:48:51.159Z,96185.84
2023-05-12T03:51:18.043Z,96181.81
2023-05-12T03:53:45.482Z,96187.78
2023-05-12T03:56:13.050Z,96188.13
2023-05-12T03:58:39.909Z,96189.53
2023-05-12T04:01:06.686Z,96187.97
2023-05-12T04:03:33.573Z,96193.16
2023-05-12T04:06:02.398Z,96187.97
2023-05-12T04:08:29.998Z,96190.25
2023-05-12T04:11:01.295Z,96195.81
2023-05-12T04:13:29.092Z,96205.47
2023-05-12T04:15:59.208Z,96205.09
2023-05-12T04:18:27.461Z,96197.31
2023-05-12T04:20:55.190Z,96210.63
2023-05-12T04:23:22.457Z,96206.59
2023-05-12T04:25:49.316Z,96214.81
2023-05-12T04:28:16.253Z,96210.69
2023-05-12T04:30:43.252Z,96211.88
2023-05-12T04:33:10.243Z,96222.94
2023-05-12T04:35:37.940Z,96223.69
2023-05-12T04:38:05.694Z,96227.03
2023-05-12T04:40:34.861Z,96230.84
2023-05-12T04:43:02.757Z,96239.47
2023-05-12T04:45:30.920Z,96244.69
2023-05-12T04:47:57.687Z,96252.84
2023-05-12T04:50:24.666Z,96257.34
2023-05-12T04:52:51.471Z,96267.00
2023-05-12T04:55:18.445Z,96264.00
2023-05-12T04:57:45.407Z,96272.16
2023-05-12T05:00:12.542Z,96272.72
2023-05-12T05:02:39.671Z,96275.91
2023-05-12T05:05:07.067Z,96284.91
2023-05-12T05:07:34.425Z,96296.00
2023-05-12T05:10:02.017Z,96296.91
2023-05-12T05:12:29.900Z,96303.97
2023-05-12T05:14:56.656Z,96306.31
2023-05-12T05:17:23.507Z,96319.59
2023-05-12T05:19:58.173Z,96324.66
2023-05-12T05:22:25.812Z,96320.47
2023-05-12T05:24:52.777Z,96330.03
2023-05-12T05:27:19.488Z,96320.50
2023-05-12T05:29:46.479Z,96327.75
2023-05-12T05:32:13.242Z,96327.84
2023-05-12T05:34:40.130Z,96325.06
2023-05-12T05:37:06.866Z,96335.66
2023-05-12T05:39:33.554Z,96327.66
2023-05-12T05:42:00.444Z,96340.19
2023-05-12T05:44:27.340Z,96341.03
2023-05-12T05:46:55.496Z,96344.88
2023-05-12T05:49:24.391Z,96356.06
2023-05-12T05:51:51.760Z,96360.41
2023-05-12T05:54:18.889Z,96355.34
2023-05-12T05:56:45.742Z,96370.19
2023-05-12T05:59:14.497Z,96364.88
2023-05-12T06:01:41.214Z,96376.19
2023-05-12T06:04:08.294Z,96374.88
2023-05-12T06:06:35.876Z,96385.88
2023-05-12T06:09:02.655Z,96376.53
2023-05-12T06:11:29.564Z,96392.31
2023-05-12T06:13:56.220Z,96407.47
2023-05-12T06:16:22.932Z,96403.50
2023-05-12T06:18:49.749Z,96411.22
2023-05-12T06:21:16.446Z,96413.47
2023-05-12T06:23:43.144Z,96412.41
2023-05-12T06:26:09.790Z,96423.47
2023-05-12T06:28:36.510Z,96439.28
2023-05-12T06:31:03.228Z,96436.84
2023-05-12T06:33:29.943Z,96444.59
2023-05-12T06:35:56.618Z,96438.94
2023-05-12T06:38:23.342Z,96452.81
2023-05-12T06:40:49.979Z,96440.78
2023-05-12T06:43:16.818Z,96457.59
2023-05-12T06:45:45.108Z,96457.34
2023-05-12T06:48:12.060Z,96464.72
2023-05-12T06:50:38.914Z,96468.25
2023-05-12T06:53:06.550Z,96467.44
2023-05-12T06:55:33.350Z,96472.34
2023-05-12T06:58:00.261Z,96487.50
2023-05-12T07:00:26.971Z,96485.22
2023-05-12T07:02:54.076Z,96495.06
2023-05-12T07:05:21.395Z,96494.56
2023-05-12T07:07:48.414Z,96506.34
2023-05-12T07:10:15.485Z,96502.66
2023-05-12T07:12:42.342Z,96498.34
2023-05-12T07:15:09.780Z,96509.41
2023-05-12T07:17:36.700Z,96510.56
2023-05-12T07:20:05.207Z,96513.06
2023-05-12T07:22:32.749Z,96526.91
2023-05-12T07:24:59.690Z,96527.41
2023-05-12T07:27:26.999Z,96542.63
2023-05-12T07:29:53.761Z,96542.44
2023-05-12T07:32:20.699Z,96548.09
2023-05-12T07:34:47.462Z,96551.25
2023-05-12T07:37:14.512Z,96569.88
2023-05-12T07:39:41.318Z,96575.03
2023-05-12T07:42:08.288Z,96580.69
2023-05-12T07:44:36.519Z,96601.81
2023-05-12T07:47:03.332Z,96595.44
2023-05-12T07:49:30.224Z,96615.25
2023-05-12T07:51:56.916Z,96632.19
2023-05-12T07:54:23.571Z,96635.59
2023-05-12T07:56:50.470Z,96654.03
2023-05-12T07:59:17.166Z,96627.91
2023-05-12T08:01:44.058Z,96645.59
2023-05-12T08:04:10.988Z,96642.59
2023-05-12T08:06:37.759Z,96662.94
2023-05-12T08:09:04.696Z,96661.56
2023-05-12T08:11:31.439Z,96658.47
2023-05-12T08:13:58.305Z,96661.53
2023-05-12T08:16:28.153Z,96665.22
2023-05-12T08:18:54.885Z,96675.94
2023-05-12T08:21:22.353Z,96689.22
2023-05-12T08:23:49.109Z,96699.34
2023-05-12T08:26:15.876Z,96706.78
2023-05-12T08:28:42.548Z,96696.00
2023-05-12T08:31:09.329Z,96703.63
2023-05-12T08:33:36.479Z,96723.28
2023-05-12T08:36:03.372Z,96752.13
2023-05-12T08:38:30.142Z,96738.84
2023-05-12T08:41:16.139Z,96770.66
2023-05-12T08:43:45.510Z,96784.66
2023-05-12T08:46:13.384Z,96807.44
2023-05-12T08:48:40.779Z,96795.72
2023-05-12T08:51:13.255Z,96833.19
2023-05-12T08:53:42.385Z,96839.88
2023-05-12T08:58:42.982Z,96871.91
2023-05-12T09:01:11.752Z,96875.22
2023-05-12T09:03:39.386Z,96891.09
2023-05-12T09:06:07.244Z,96913.31
2023-05-12T09:08:35.302Z,96928.69
2023-05-12T09:11:02.189Z,96917.69
2023-05-12T09:13:40.502Z,96920.09
2023-05-12T09:16:12.996Z,96982.19
2023-05-12T09:18:58.520Z,96973.13
2023-05-12T09:21:26.744Z,96979.22
2023-05-12T09:24:07.228Z,96973.56
2023-05-12T09:26:56.102Z,96977.16
2023-05-12T09:29:31.448Z,96977.84
2023-05-12T09:32:02.460Z,96996.13
2023-05-12T09:34:31.745Z,97015.63
2023-05-12T09:37:01.215Z,97093.38
2023-05-12T09:39:29.119Z,97128.25
2023-05-12T09:41:56.281Z,97168.97
2023-05-12T09:44:24.505Z,97206.72
2023-05-12T09:46:51.753Z,97200.22
2023-05-12T09:49:26.979Z,97241.66
2023-05-12T09:51:56.547Z,97272.28
2023-05-12T09:54:31.540Z,97283.81
2023-05-12T09:57:03.861Z,97367.81
2023-05-12T09:59:33.404Z,97348.31
2023-05-12T10:02:01.761Z,97335.38
2023-05-12T10:04:45.746Z,97243.28
2023-05-12T10:07:14.545Z,97291.97
2023-05-12T10:09:44.427Z,97273.78
2023-05-12T10:12:11.900Z,97336.50
2023-05-12T10:14:38.883Z,97343.50
2023-05-12T10:17:07.228Z,97419.06
2023-05-12T10:19:35.598Z,97455.88
2023-05-12T10:22:04.165Z,97489.69
2023-05-12T10:24:31.038Z,97511.19
2023-05-12T10:26:59.851Z,97521.25
2023-05-12T10:29:30.282Z,97415.56
2023-05-12T10:31:58.120Z,97512.47
2023-05-12T10:34:37.769Z,97504.53
2023-05-12T10:37:10.228Z,97639.75
2023-05-12T10:39:46.543Z,97515.22
2023-05-12T10:42:17.554Z,97570.19
2023-05-12T10:44:52.424Z,97555.72
2023-05-12T10:47:23.625Z,97520.41
2023-05-12T10:49:56.353Z,97538.50
2023-05-12T10:52:23.319Z,97573.16
2023-05-12T10:54:49.965Z,97525.78
2023-05-12T10:57:21.498Z,97520.53
2023-05-12T10:59:58.799Z,97504.50
2023-05-12T11:02:32.585Z,97524.75
2023-05-12T11:05:10.657Z,97560.31
2023-05-12T11:07:38.070Z,97581.41
2023-05-12T11:10:06.106Z,97600.59
2023-05-12T11:12:37.687Z,97571.84
2023-05-12T11:15:06.098Z,97573.28
2023-05-12T11:17:33.363Z,97565.78
2023-05-12T11:20:01.343Z,97551.22
2023-05-12T11:22:28.537Z,97574.25
2023-05-12T11:24:55.556Z,97546.69
2023-05-12T11:27:23.870Z,97589.03
2023-05-12T11:29:58.647Z,97568.53
2023-05-12T11:32:25.492Z,97566.59
2023-05-12T11:34:52.176Z,97593.59
2023-05-12T11:37:21.506Z,97613.81
2023-05-12T11:39:48.582Z,97557.97
2023-05-12T11:42:17.726Z,97560.53
2023-05-12T11:44:48.877Z,97596.38
2023-05-12T11:47:16.938Z,97600.88
2023-05-12T11:49:52.264Z,97544.97
2023-05-12T11:52:21.340Z,97567.25
2023-05-12T11:54:48.628Z,97533.50
2023-05-12T11:57:30.646Z,97585.19
2023-05-12T12:00:05.721Z,97556.53
2023-05-12T12:02:37.638Z,97523.25
2023-05-12T12:05:06.435Z,97540.63
2023-05-12T12:07:36.609Z,97509.09
2023-05-12T12:10:18.435Z,97503.13
2023-05-12T12:12:46.118Z,97539.69
2023-05-12T12:15:13.293Z,97551.56
2023-05-12T12:17:40.767Z,97536.81
2023-05-12T12:20:09.389Z,97544.56
2023-05-12T12:22:36.270Z,97644.16
2023-05-12T12:25:03.893Z,97642.81
2023-05-12T12:27:30.854Z,97665.06
2023-05-12T12:29:57.550Z,97666.59
2023-05-12T12:32:24.356Z,97651.00
2023-05-12T12:34:51.742Z,97654.91
2023-05-12T12:37:18.424Z,97667.53
2023-05-12T12:39:45.195Z,97641.19
2023-05-12T12:42:11.857Z,97608.81
2023-05-12T12:44:38.535Z,97622.47
2023-05-12T12:47:05.543Z,97607.91
2023-05-12T12:49:32.206Z,97595.19
2023-05-12T12:51:58.913Z,97552.28
2023-05-12T12:54:27.641Z,97525.81
2023-05-12T12:56:55.761Z,97533.94
2023-05-12T12:59:22.869Z,97508.41
2023-05-12T13:01:49.902Z,97528.13
2023-05-12T13:04:19.714Z,97531.38
2023-05-12T13:06:46.825Z,97509.88
2023-05-12T13:09:14.095Z,97491.56
2023-05-12T13:11:41.034Z,97494.19
2023-05-12T13:14:08.409Z,97488.16
2023-05-12T13:16:35.122Z,97483.09
2023-05-12T13:19:02.171Z,97488.47
2023-05-12T13:21:28.899Z,97515.69
2023-05-12T13:23:55.800Z,97500.66
2023-05-12T13:26:22.661Z,97498.09
2023-05-12T13:28:49.361Z,97495.56
2023-05-12T13:31:16.104Z,97480.53
2023-05-12T13:33:42.845Z,97466.38
2023-05-12T13:36:09.691Z,97500.09
2023-05-12T13:38:36.344Z,97557.94
2023-05-12T13:41:03.412Z,97548.38
2023-05-12T13:43:30.048Z,97564.09
2023-05-12T13:45:57.087Z,97567.00
2023-05-12T13:48:23.898Z,97591.94
2023-05-12T13:50:50.799Z,97624.75
2023-05-12T13:53:17.609Z,97617.59
2023-05-12T13:55:45.196Z,97683.34
2023-05-12T13:58:11.876Z,97682.75
2023-05-12T14:00:38.670Z,97708.19
2023-05-12T14:03:05.562Z,97728.00
2023-05-12T14:05:32.636Z,97696.13
2023-05-12T14:07:59.656Z,97707.25
2023-05-12T14:10:26.468Z,97672.44
2023-05-12T14:12:53.300Z,97709.94
2023-05-12T14:15:32.563Z,97759.81
2023-05-12T14:18:06.881Z,97739.84
2023-05-12T14:20:33.918Z,97721.22
2023-05-12T14:23:00.747Z,97732.19
2023-05-12T14:25:27.580Z,97727.47
2023-05-12T14:27:54.296Z,97736.56
2023-05-12T14:30:22.030Z,97782.09
2023-05-12T14:32:48.876Z,97738.63
2023-05-12T14:35:15.691Z,97759.44
2023-05-12T14:37:42.411Z,97735.03
2023-05-12T14:40:09.680Z,97708.69
2023-05-12T14:42:36.334Z,97729.59
2023-05-12T14:45:03.310Z,97713.13
2023-05-12T14:47:30.039Z,97725.59
2023-05-12T14:49:56.756Z,97754.19
2023-05-12T14:52:23.823Z,97822.03
2023-05-12T14:54:50.449Z,97808.19
2023-05-12T14:57:17.634Z,97776.75
2023-05-12T14:59:44.426Z,97814.09
2023-05-12T15:02:11.157Z,97799.13
2023-05-12T15:04:38.116Z,97787.66
2023-05-12T15:07:05.226Z,97756.75
2023-05-12T15:09:31.919Z,97848.47
2023-05-12T15:11:58.725Z,97814.31
2023-05-12T15:14:25.524Z,97843.97
2023-05-12T15:16:52.586Z,97809.38
2023-05-12T15:19:21.620Z,97822.69
2023-05-12T15:21:48.280Z,97831.88
2023-05-12T15:24:15.353Z,97812.44
2023-05-12T15:26:42.099Z,97869.03
2023-05-12T15:29:08.849Z,97860.41
2023-05-12T15:31:35.930Z,97819.09
2023-05-12T15:34:03.167Z,97833.81
2023-05-12T15:36:31.049Z,97791.44
2023-05-12T15:38:57.891Z,97784.53
2023-05-12T15:41:24.618Z,97736.44
2023-05-12T15:43:51.786Z,97759.78
2023-05-12T15:46:18.790Z,97791.78
2023-05-12T15:48:45.653Z,97492.19
2023-05-12T15:51:12.341Z,97043.94
2023-05-12T15:53:39.057Z,97037.56
2023-05-12T15:56:06.394Z,97017.13
2023-05-12T15:58:33.389Z,96983.69
2023-05-12T16:01:00.411Z,96972.31
2023-05-12T16:03:27.461Z,96982.47
2023-05-12T16:05:54.216Z,97034.03
2023-05-12T16:08:22.039Z,97075.78
2023-05-12T16:10:48.779Z,97091.16
2023-05-12T16:13:15.613Z,97034.94
2023-05-12T16:15:42.537Z,96998.19
2023-05-12T16:18:11.384Z,96972.47
2023-05-12T16:20:39.067Z,96950.66
2023-05-12T16:23:05.864Z,96931.88
2023-05-12T16:25:32.680Z,96946.72
2023-05-12T16:27:59.581Z,96940.81
2023-05-12T16:30:26.628Z,96950.22
2023-05-12T16:32:53.485Z,96962.91
2023-05-12T16:35:20.915Z,96972.72
2023-05-12T16:37:48.172Z,96949.66
2023-05-12T16:40:15.507Z,96944.34
2023-05-12T16:42:42.952Z,96940.81
2023-05-12T16:45:11.107Z,96944.50
2023-05-12T16:47:37.942Z,96934.13
2023-05-12T16:50:05.594Z,96923.19
2023-05-12T16:52:32.344Z,96895.88
2023-05-12T16:54:59.052Z,96879.28
2023-05-12T16:57:25.968Z,96858.03
2023-05-12T16:59:52.999Z,96852.84
2023-05-12T17:02:19.888Z,96852.22
2023-05-12T17:04:46.932Z,96833.31
2023-05-12T17:07:13.705Z,96795.66
2023-05-12T17:09:40.597Z,96777.34
2023-05-12T17:12:08.616Z,96774.69
2023-05-12T17:14:35.385Z,96774.78
2023-05-12T17:17:02.629Z,96797.84
2023-05-12T17:19:29.521Z,96803.88
2023-05-12T17:21:56.529Z,96820.69
2023-05-12T17:24:23.242Z,96818.41
2023-05-12T17:26:49.988Z,96840.66
2023-05-12T17:29:17.312Z,96859.34
2023-05-12T17:31:44.129Z,96847.41
2023-05-12T17:34:10.912Z,96866.41
2023-05-12T17:36:37.734Z,96854.72
2023-05-12T17:39:04.434Z,96868.28
2023-05-12T17:41:31.311Z,96873.59
2023-05-12T17:43:58.059Z,96860.53
2023-05-12T17:46:24.861Z,96863.00
2023-05-12T17:48:51.676Z,96848.13
2023-05-12T17:51:18.446Z,96858.75
2023-05-12T17:53:45.125Z,96861.78
2023-05-12T17:56:11.838Z,96881.19
2023-05-12T17:58:38.813Z,96894.34
2023-05-12T18:01:05.612Z,96893.53
2023-05-12T18:03:32.377Z,96884.19
2023-05-12T18:05:59.555Z,96880.13
2023-05-12T18:08:27.332Z,96889.41
2023-05-12T18:10:54.268Z,96891.47
2023-05-12T18:13:21.057Z,96903.28
2023-05-12T18:15:50.230Z,96909.44
2023-05-12T18:18:17.221Z,96915.94
2023-05-12T18:20:43.988Z,96925.13
2023-05-12T18:23:10.921Z,96930.66
2023-05-12T18:25:37.898Z,96942.81
2023-05-12T18:28:06.685Z,96949.34
2023-05-12T18:30:33.735Z,96935.25
2023-05-12T18:33:00.615Z,96937.00
2023-05-12T18:35:27.530Z,96935.94
2023-05-12T18:37:54.712Z,96924.13
2023-05-12T18:40:21.612Z,96933.31
2023-05-12T18:42:48.444Z,96934.88
2023-05-12T18:45:15.844Z,96958.13
2023-05-12T18:47:42.867Z,96977.75
2023-05-12T18:50:09.990Z,96961.31
2023-05-12T18:52:36.950Z,96958.94
2023-05-12T18:55:03.940Z,96944.69
2023-05-12T18:57:30.825Z,96932.53
2023-05-12T18:59:57.588Z,96925.53
2023-05-12T19:02:24.342Z,96917.59
2023-05-12T19:04:51.209Z,96914.09
2023-05-12T19:07:18.071Z,96899.50
2023-05-12T19:09:45.253Z,96895.91
2023-05-12T19:12:12.150Z,96879.16
2023-05-12T19:14:40.561Z,96901.69
2023-05-12T19:17:07.860Z,96916.66
2023-05-12T19:19:35.108Z,96931.84
2023-05-12T19:22:02.270Z,96945.16
2023-05-12T19:24:29.792Z,96974.09
2023-05-12T19:26:57.577Z,96989.75
2023-05-12T19:29:24.602Z,96979.66
2023-05-12T19:31:53.077Z,97002.69
2023-05-12T19:34:20.145Z,97005.63
2023-05-12T19:36:47.015Z,97004.53
2023-05-12T19:39:13.706Z,97019.00
2023-05-12T19:41:41.187Z,97018.44
2023-05-12T19:44:08.082Z,97030.75
2023-05-12T19:46:34.884Z,97037.69
2023-05-12T19:49:02.542Z,97037.19
2023-05-12T19:51:29.388Z,97030.13
2023-05-12T19:53:56.122Z,97017.63
2023-05-12T19:56:22.909Z,97012.22
2023-05-12T19:58:49.951Z,97021.00
2023-05-12T20:01:16.762Z,97030.66
2023-05-12T20:03:44.080Z,97031.63
2023-05-12T20:06:11.173Z,97044.34
2023-05-12T20:08:38.163Z,97055.78
2023-05-12T20:11:04.943Z,97050.88
2023-05-12T20:13:32.032Z,97048.34
2023-05-12T20:15:59.329Z,97042.94
2023-05-12T20:18:26.200Z,97047.31
2023-05-12T20:20:53.038Z,97048.72
2023-05-12T20:23:19.742Z,97049.34
2023-05-12T20:25:46.911Z,97044.69
2023-05-12T20:28:14.150Z,97033.59
2023-05-12T20:30:41.185Z,97035.66
2023-05-12T20:33:08.055Z,97028.16
2023-05-12T20:35:34.823Z,97034.25
2023-05-12T20:38:01.622Z,97030.00
2023-05-12T20:40:28.370Z,97036.53
2023-05-12T20:42:55.097Z,97038.69
2023-05-12T20:45:22.087Z,97030.88
2023-05-12T20:47:49.539Z,97025.00
2023-05-12T20:50:16.302Z,97028.16
2023-05-12T20:52:43.195Z,97023.72
2023-05-12T20:55:10.145Z,97030.53
2023-05-12T20:57:38.013Z,97015.91
2023-05-12T21:00:05.220Z,97017.59
2023-05-12T21:02:32.064Z,97004.16
2023-05-12T21:04:59.192Z,97011.63
2023-05-12T21:07:25.835Z,97010.00
2023-05-12T21:09:52.826Z,97001.31
2023-05-12T21:12:19.689Z,97010.03
2023-05-12T21:14:46.375Z,96998.97
2023-05-12T21:17:13.209Z,97005.34
2023-05-12T21:19:41.014Z,96996.00
2023-05-12T21:22:09.259Z,96994.94
2023-05-12T21:24:37.710Z,96996.34
2023-05-12T21:27:06.118Z,96986.13
2023-05-12T21:29:33.850Z,96986.22
2023-05-12T21:32:01.327Z,96977.13
2023-05-12T21:34:28.430Z,96974.94
2023-05-12T21:36:55.215Z,96972.44
2023-05-12T21:39:22.196Z,96972.91
2023-05-12T21:41:49.344Z,96979.97
2023-05-12T21:44:16.390Z,96980.91
2023-05-12T21:46:43.586Z,96974.50
2023-05-12T21:49:10.489Z,96978.84
2023-05-12T21:51:37.234Z,96980.06
2023-05-12T21:54:04.600Z,96974.19
2023-05-12T21:56:31.578Z,96975.38
2023-05-12T21:58:58.298Z,96975.38
2023-05-12T22:01:24.961Z,96970.19
2023-05-12T22:03:51.770Z,96964.88
2023-05-12T22:06:18.696Z,96974.38
2023-05-12T22:08:45.377Z,96972.78
2023-05-12T22:11:12.075Z,96978.84
2023-05-12T22:13:38.856Z,96978.81
2023-05-12T22:16:05.884Z,96969.09
2023-05-12T22:18:33.538Z,96968.09
2023-05-12T22:21:00.270Z,96974.84
2023-05-12T22:23:26.955Z,96979.06
2023-05-12T22:25:53.777Z,96981.19
2023-05-12T22:28:20.703Z,96970.72
2023-05-12T22:30:47.340Z,96965.13
2023-05-12T22:33:14.103Z,96971.34
2023-05-12T22:35:40.824Z,96970.78
2023-05-12T22:38:07.554Z,96970.59
2023-05-12T22:40:34.397Z,96977.84
2023-05-12T22:43:01.169Z,96984.00
2023-05-12T22:45:28.069Z,96983.34
2023-05-12T22:47:55.240Z,96990.00
2023-05-12T22:50:22.306Z,96985.25
2023-05-12T22:52:49.271Z,96982.09
2023-05-12T22:55:15.909Z,96974.72
2023-05-12T22:57:43.969Z,96973.72
2023-05-12T23:00:11.733Z,96971.22
2023-05-12T23:02:38.486Z,96971.88
2023-05-12T23:05:05.895Z,96977.56
2023-05-12T23:07:32.536Z,96971.88
2023-05-12T23:09:59.242Z,96977.94
2023-05-12T23:12:26.218Z,96984.16
2023-05-12T23:14:52.905Z,96991.19
2023-05-12T23:17:20.939Z,96996.47
2023-05-12T23:19:47.660Z,97000.94
2023-05-12T23:22:14.309Z,97008.75
2023-05-12T23:24:41.300Z,97013.13
2023-05-12T23:27:08.139Z,97005.50
2023-05-12T23:29:34.853Z,97005.63
2023-05-12T23:32:01.940Z,97003.81
2023-05-12T23:34:28.972Z,96989.38
2023-05-12T23:36:55.735Z,96991.66
2023-05-12T23:39:22.404Z,96990.59
2023-05-12T23:41:49.759Z,96998.31
2023-05-12T23:44:16.540Z,97013.63
2023-05-12T23:46:43.381Z,97000.59
2023-05-12T23:49:10.160Z,97007.69
2023-05-12T23:51:36.812Z,96999.31
2023-05-12T23:54:03.568Z,97003.47
2023-05-12T23:56:30.263Z,97001.69
2023-05-12T23:58:56.938Z,97005.09
